Time;durP1;ratioP1;P1;durP2;ratioP2;P2;SDS_P1;SDS_P2;PMS_P1;PMS_P2;Temp;Humidity;BMP_temperature;BMP_pressure;BME280_temperature;BME280_humidity;BME280_pressure;Samples;Min_cycle;Max_cycle;Signal;HPM_P1;HPM_P2
2021/10/15 00:01:27;;;;;;;8.88;5.22;;;;;;;7.68;74.71;101687.77;1785979;80;21161;-66
2021/10/15 00:04:00;;;;;;;9.90;5.72;;;;;;;7.64;74.81;101690.16;1786514;80;21232;-66
2021/10/15 00:06:35;;;;;;;8.48;5.55;;;;;;;7.61;74.86;101689.47;1768513;80;21268;-66
2021/10/15 00:09:13;;;;;;;8.65;5.83;;;;;;;7.57;75.02;101686.17;1786525;80;21314;-66
2021/10/15 00:11:51;;;;;;;8.23;5.75;;;;;;;7.54;75.10;101681.15;1784667;80;21137;-66
2021/10/15 00:14:27;;;;;;;10.43;5.87;;;;;;;7.51;75.16;101670.88;1786731;80;21287;-65
2021/10/15 00:17:01;;;;;;;10.50;5.60;;;;;;;7.50;75.29;101668.37;1780329;80;21221;-66
2021/10/15 00:19:35;;;;;;;7.85;5.42;;;;;;;7.51;75.51;101659.61;1772495;81;21807;-65
2021/10/15 00:22:13;;;;;;;8.90;6.08;;;;;;;7.48;75.69;101657.55;1759542;81;21200;-66
2021/10/15 00:24:50;;;;;;;10.45;6.25;;;;;;;7.48;75.85;101657.55;1771002;80;21177;-66
2021/10/15 00:27:27;;;;;;;15.32;8.25;;;;;;;7.43;75.79;101663.92;1771285;81;21150;-67
2021/10/15 00:30:04;;;;;;;14.05;7.53;;;;;;;7.35;75.92;101677.84;1772807;81;21142;-67
2021/10/15 00:32:44;;;;;;;12.80;7.70;;;;;;;7.31;76.00;101685.41;1771002;80;21169;-67
2021/10/15 00:35:17;;;;;;;14.78;7.45;;;;;;;7.28;76.13;101685.11;1772675;81;21205;-66
2021/10/15 00:37:53;;;;;;;10.23;6.20;;;;;;;7.27;76.21;101687.80;1771186;81;21272;-67
2021/10/15 00:40:28;;;;;;;11.12;6.72;;;;;;;7.25;76.26;101686.59;1772550;81;21260;-68
2021/10/15 00:43:01;;;;;;;12.23;6.70;;;;;;;7.24;76.40;101687.95;1771772;81;21287;-68
2021/10/15 00:45:36;;;;;;;8.90;5.25;;;;;;;7.25;76.60;101690.50;1773185;81;21761;-67
2021/10/15 00:48:12;;;;;;;9.93;6.30;;;;;;;7.29;76.68;101697.23;1770956;81;21205;-67
2021/10/15 00:50:51;;;;;;;9.60;6.00;;;;;;;7.29;76.61;101688.56;1771451;79;21317;-68
2021/10/15 00:53:24;;;;;;;15.15;7.45;;;;;;;7.28;76.61;101696.83;1771501;81;21279;-69
2021/10/15 00:56:01;;;;;;;11.68;7.47;;;;;;;7.30;76.59;101698.08;1772801;81;21245;-69
2021/10/15 00:58:35;;;;;;;10.38;6.45;;;;;;;7.31;76.61;101694.53;1771377;81;21279;-68
2021/10/15 01:01:11;;;;;;;9.58;6.28;;;;;;;7.31;76.66;101694.08;1772800;81;21185;-68
2021/10/15 01:03:44;;;;;;;9.43;6.03;;;;;;;7.32;76.63;101707.50;1771849;81;21241;-67
2021/10/15 01:06:19;;;;;;;10.78;6.35;;;;;;;7.31;76.62;101703.19;1770792;80;21161;-67
2021/10/15 01:08:54;;;;;;;11.88;6.00;;;;;;;7.32;76.62;101703.59;1771701;81;21273;-67
2021/10/15 01:11:35;;;;;;;10.80;6.67;;;;;;;7.36;76.63;101708.16;1772578;81;21320;-68
2021/10/15 01:14:12;;;;;;;13.22;7.33;;;;;;;7.41;76.64;101711.37;1771763;81;21276;-67
2021/10/15 01:16:50;;;;;;;11.50;6.60;;;;;;;7.42;76.58;101716.52;1762412;81;21701;-67
2021/10/15 01:19:30;;;;;;;10.75;5.62;;;;;;;7.46;76.54;101717.19;1771317;80;21272;-68
2021/10/15 01:22:06;;;;;;;8.58;5.80;;;;;;;7.50;76.52;101719.18;1772633;81;21284;-67
2021/10/15 01:24:47;;;;;;;9.15;5.70;;;;;;;7.52;76.50;101723.84;1771531;81;21280;-68
2021/10/15 01:27:21;;;;;;;10.05;5.95;;;;;;;7.54;76.47;101720.69;1772339;81;21280;-68
2021/10/15 01:30:06;;;;;;;12.88;6.47;;;;;;;7.56;76.36;101718.39;1773183;81;21170;-69
2021/10/15 01:32:45;;;;;;;13.53;6.67;;;;;;;7.57;76.22;101717.94;1772675;81;21256;-68
2021/10/15 01:35:20;;;;;;;14.90;7.95;;;;;;;7.56;76.15;101720.14;1771153;80;21173;-68
2021/10/15 01:37:57;;;;;;;8.98;6.45;;;;;;;7.58;76.23;101716.98;1772018;81;21276;-68
2021/10/15 01:40:34;;;;;;;11.00;6.97;;;;;;;7.61;76.19;101723.35;1770885;80;21193;-67
2021/10/15 01:43:11;;;;;;;10.43;6.87;;;;;;;7.62;76.14;101720.65;1772402;81;21280;-67
2021/10/15 01:45:44;;;;;;;12.78;7.25;;;;;;;7.62;76.02;101721.95;1772798;81;21304;-67
2021/10/15 01:48:19;;;;;;;8.20;5.87;;;;;;;7.62;75.90;101731.08;1771916;81;21272;-67
2021/10/15 01:50:54;;;;;;;13.03;7.42;;;;;;;7.60;75.76;101730.32;1771581;79;21310;-68
2021/10/15 01:53:30;;;;;;;9.78;5.95;;;;;;;7.59;75.70;101735.63;1772306;81;21299;-63
2021/10/15 01:56:05;;;;;;;11.93;6.10;;;;;;;7.55;75.70;101731.02;1771242;81;21248;-67
2021/10/15 01:58:45;;;;;;;10.95;6.80;;;;;;;7.55;75.74;101732.81;1770521;80;21208;-66
2021/10/15 02:01:18;;;;;;;14.98;7.67;;;;;;;7.53;75.86;101736.78;1772751;81;21276;-69
2021/10/15 02:03:52;;;;;;;12.63;7.12;;;;;;;7.54;75.93;101738.94;1771341;81;21271;-68
2021/10/15 02:06:30;;;;;;;14.47;9.00;;;;;;;7.55;75.96;101739.33;1772744;81;21178;-68
2021/10/15 02:09:06;;;;;;;10.82;7.70;;;;;;;7.55;75.91;101744.54;1771780;81;21272;-67
2021/10/15 02:11:42;;;;;;;16.90;6.67;;;;;;;7.54;75.95;101750.66;1772533;81;21287;-66
2021/10/15 02:14:18;;;;;;;11.38;6.50;;;;;;;7.56;75.99;101754.88;1772189;81;21272;-67
2021/10/15 02:16:56;;;;;;;14.05;7.47;;;;;;;7.57;76.01;101741.39;1772577;81;21260;-66
2021/10/15 02:19:30;;;;;;;10.50;6.65;;;;;;;7.56;75.98;101740.99;1771300;81;21158;-67
2021/10/15 02:22:06;;;;;;;10.82;6.72;;;;;;;7.57;75.96;101741.39;1771156;81;21288;-68
2021/10/15 02:24:45;;;;;;;12.20;7.22;;;;;;;7.56;75.97;101738.39;1761225;81;22075;-69
2021/10/15 02:27:21;;;;;;;9.83;5.92;;;;;;;7.56;75.94;101748.81;1771065;80;21141;-70
2021/10/15 02:30:04;;;;;;;10.40;6.03;;;;;;;7.55;75.96;101747.97;1771605;81;21308;-69
2021/10/15 02:32:38;;;;;;;12.75;6.10;;;;;;;7.54;75.94;101750.20;1772777;81;21791;-68
2021/10/15 02:35:11;;;;;;;13.97;7.43;;;;;;;7.54;76.01;101745.00;1772064;81;21283;-69
2021/10/15 02:37:45;;;;;;;12.78;7.05;;;;;;;7.54;76.09;101750.20;1772849;81;21776;-68
2021/10/15 02:40:25;;;;;;;13.98;7.00;;;;;;;7.55;76.10;101754.48;1771612;81;21168;-67
2021/10/15 02:43:04;;;;;;;16.85;8.68;;;;;;;7.55;76.02;101743.23;1772655;81;21855;-67
2021/10/15 02:45:39;;;;;;;19.52;10.85;;;;;;;7.55;75.98;101746.66;1771472;81;21312;-67
2021/10/15 02:48:14;;;;;;;15.78;9.33;;;;;;;7.53;75.89;101741.14;1772830;81;21146;-68
2021/10/15 02:50:50;;;;;;;13.85;8.78;;;;;;;7.52;75.96;101748.15;1770954;79;21257;-67
2021/10/15 02:53:28;;;;;;;19.45;10.53;;;;;;;7.53;76.02;101746.36;1772110;80;21252;-68
2021/10/15 02:56:03;;;;;;;17.25;10.53;;;;;;;7.56;76.04;101752.27;1771722;81;21319;-67
2021/10/15 02:58:39;;;;;;;14.20;8.48;;;;;;;7.57;76.05;101753.93;1772370;81;21272;-67
2021/10/15 03:01:18;;;;;;;11.78;7.95;;;;;;;7.58;76.05;101755.63;1771143;81;21292;-66
2021/10/15 03:03:56;;;;;;;14.05;7.83;;;;;;;7.59;75.95;101761.69;1772756;81;21237;-67
2021/10/15 03:06:31;;;;;;;11.35;7.55;;;;;;;7.60;75.88;101765.50;1771367;81;21312;-69
2021/10/15 03:09:08;;;;;;;18.07;8.43;;;;;;;7.61;75.92;101763.75;1772552;81;21261;-67
2021/10/15 03:11:47;;;;;;;10.98;6.85;;;;;;;7.61;75.87;101763.75;1771276;81;21311;-67
2021/10/15 03:14:27;;;;;;;10.80;6.90;;;;;;;7.62;75.89;101765.45;1772828;81;21261;-68
2021/10/15 03:17:01;;;;;;;10.93;7.47;;;;;;;7.61;75.90;101763.75;1772748;81;21288;-68
2021/10/15 03:19:35;;;;;;;;;;;;;;;7.61;75.97;101768.51;1773189;80;21189;-69
2021/10/15 03:22:14;;;;;;;12.25;6.37;;;;;;;7.62;75.95;101770.17;1773312;80;20610;-68
2021/10/15 03:24:46;;;;;;;13.43;7.28;;;;;;;7.60;76.00;101772.02;1772965;81;21245;-68
2021/10/15 03:27:21;;;;;;;13.65;7.05;;;;;;;7.62;75.97;101769.36;1772702;81;21549;-69
2021/10/15 03:29:56;;;;;;;11.35;7.83;;;;;;;7.61;75.91;101770.27;1772128;81;21253;-68
2021/10/15 03:32:36;;;;;;;14.00;8.68;;;;;;;7.60;75.97;101768.57;1772556;81;21365;-68
2021/10/15 03:35:11;;;;;;;16.27;8.60;;;;;;;7.60;76.02;101773.33;1773005;81;21134;-67
2021/10/15 03:37:45;;;;;;;13.08;8.00;;;;;;;7.62;76.04;101769.36;1772997;81;21150;-67
2021/10/15 03:40:20;;;;;;;12.65;7.75;;;;;;;7.64;76.07;101764.90;1771991;81;21212;-67
2021/10/15 03:42:53;;;;;;;12.80;6.97;;;;;;;7.64;76.04;101770.96;1773205;81;21249;-67
2021/10/15 03:45:30;;;;;;;13.30;6.70;;;;;;;7.66;76.07;101772.17;1772735;81;21268;-67
2021/10/15 03:48:06;;;;;;;13.50;7.85;;;;;;;7.67;76.06;101773.84;1772874;81;21281;-68
2021/10/15 03:50:45;;;;;;;12.13;7.87;;;;;;;7.68;76.22;101780.30;1771341;79;21288;-70
2021/10/15 03:53:22;;;;;;;12.28;7.25;;;;;;;7.71;76.23;101783.20;1772549;81;21133;-71
2021/10/15 03:55:59;;;;;;;13.03;7.72;;;;;;;7.68;76.21;101781.59;1771185;80;21141;-69
2021/10/15 03:58:36;;;;;;;12.90;7.45;;;;;;;7.70;76.25;101789.33;1772269;81;21292;-67
2021/10/15 04:01:11;;;;;;;11.03;7.42;;;;;;;7.68;76.24;101788.11;1771577;81;21333;-67
2021/10/15 04:03:45;;;;;;;14.33;7.35;;;;;;;7.69;76.24;101794.99;1770790;80;21142;-67
2021/10/15 04:06:18;;;;;;;13.60;6.92;;;;;;;7.69;76.30;101796.30;1772574;81;21280;-67
2021/10/15 04:08:52;;;;;;;11.00;6.95;;;;;;;7.70;76.36;101794.08;1772847;81;21178;-68
2021/10/15 04:11:26;;;;;;;10.13;7.10;;;;;;;7.69;76.31;101799.39;1771595;81;21213;-68
2021/10/15 04:14:00;;;;;;;11.30;7.60;;;;;;;7.67;76.37;101794.23;1772986;81;21281;-67
2021/10/15 04:16:38;;;;;;;14.60;9.45;;;;;;;7.68;76.41;101799.84;1772136;81;21256;-69
2021/10/15 04:19:13;;;;;;;13.05;7.92;;;;;;;7.69;76.45;101792.87;1772715;81;21320;-67
2021/10/15 04:21:52;;;;;;;12.15;7.55;;;;;;;7.68;76.41;101808.12;1771104;81;21312;-68
2021/10/15 04:24:28;;;;;;;13.58;8.85;;;;;;;7.67;76.41;101812.48;1771706;80;21304;-64
2021/10/15 04:27:08;;;;;;;13.85;8.75;;;;;;;7.67;76.53;101814.23;1772037;81;21323;-64
2021/10/15 04:29:48;;;;;;;12.45;8.30;;;;;;;7.68;76.64;101823.30;1771118;80;21190;-63
2021/10/15 04:32:23;;;;;;;15.10;8.15;;;;;;;7.69;76.64;101819.76;1770783;80;21244;-68
2021/10/15 04:35:00;;;;;;;12.53;7.97;;;;;;;7.69;76.59;101820.24;1772723;81;21134;-67
2021/10/15 04:37:36;;;;;;;12.58;7.92;;;;;;;7.68;76.62;101821.16;1759743;80;22056;-67
2021/10/15 04:40:10;;;;;;;10.85;7.25;;;;;;;7.66;76.59;101824.30;1731624;82;22110;-67
2021/10/15 04:42:44;;;;;;;15.13;7.72;;;;;;;7.64;76.64;101827.45;1713421;81;22091;-68
2021/10/15 04:45:21;;;;;;;13.90;7.85;;;;;;;7.63;76.73;101825.75;1718992;83;21347;-67
2021/10/15 04:47:57;;;;;;;14.13;8.28;;;;;;;7.65;76.85;101824.75;1709254;84;21173;-66
2021/10/15 04:50:36;;;;;;;13.40;8.80;;;;;;;7.67;76.91;101820.76;1709250;82;21181;-66
2021/10/15 04:53:08;;;;;;;12.40;8.20;;;;;;;7.70;77.06;101827.97;1709937;83;21156;-67
2021/10/15 04:55:48;;;;;;;13.62;7.45;;;;;;;7.75;77.01;101831.19;1711096;84;21316;-68
2021/10/15 04:58:21;;;;;;;12.55;7.92;;;;;;;7.81;76.86;101833.94;1710040;84;21220;-69
2021/10/15 05:00:59;;;;;;;14.25;8.38;;;;;;;7.85;76.87;101837.61;1710746;84;21218;-68
2021/10/15 05:03:37;;;;;;;15.00;8.48;;;;;;;7.92;76.77;101849.41;1709912;84;21348;-67
2021/10/15 05:06:15;;;;;;;14.85;8.38;;;;;;;7.96;76.70;101844.85;1711002;84;21197;-67
2021/10/15 05:09:02;;;;;;;18.05;9.25;;;;;;;8.02;76.60;101853.67;1709369;84;21149;-68
2021/10/15 05:11:28;;;;;;;17.40;8.68;;;;;;;8.06;76.33;101853.88;1707780;84;21204;-68
2021/10/15 05:14:07;;;;;;;13.15;8.35;;;;;;;8.06;76.31;101852.12;1709391;84;21237;-68
2021/10/15 05:16:40;;;;;;;17.73;8.55;;;;;;;8.12;76.26;101856.15;1711080;84;22003;-69
2021/10/15 05:19:15;;;;;;;12.60;7.85;;;;;;;8.17;76.22;101856.75;1709778;84;21196;-67
2021/10/15 05:21:52;;;;;;;16.15;7.62;;;;;;;8.24;76.26;101860.72;1710157;84;21328;-65
2021/10/15 05:24:28;;;;;;;11.63;7.50;;;;;;;8.33;76.09;101856.82;1710598;84;21268;-66
2021/10/15 05:27:04;;;;;;;12.37;7.67;;;;;;;8.37;75.94;101857.02;1710827;84;21177;-69
2021/10/15 05:29:38;;;;;;;16.25;8.73;;;;;;;8.42;75.78;101856.31;1710924;84;21783;-68
2021/10/15 05:32:12;;;;;;;13.20;8.00;;;;;;;8.43;75.47;101854.09;1710476;84;21169;-64
2021/10/15 05:34:50;;;;;;;14.33;8.48;;;;;;;8.42;75.41;101858.47;1711353;84;21224;-67
2021/10/15 05:37:24;;;;;;;13.10;8.40;;;;;;;8.44;75.36;101861.83;1711028;84;21267;-69
2021/10/15 05:39:57;;;;;;;13.05;8.70;;;;;;;8.44;75.36;101855.30;1711253;84;21311;-66
2021/10/15 05:42:34;;;;;;;13.98;8.83;;;;;;;8.47;75.45;101850.38;1709967;84;21300;-66
2021/10/15 05:45:11;;;;;;;13.58;8.53;;;;;;;8.55;75.38;101858.16;1711137;84;21839;-67
2021/10/15 05:47:55;;;;;;;14.30;9.53;;;;;;;8.62;75.21;101863.42;1709520;83;21153;-66
2021/10/15 05:50:34;;;;;;;22.65;9.13;;;;;;;8.71;75.10;101855.11;1710183;82;21153;-67
2021/10/15 05:53:13;;;;;;;19.45;9.48;;;;;;;8.80;74.85;101863.72;1709756;84;21181;-66
2021/10/15 05:58:52;;;;;;;15.18;8.78;;;;;;;8.97;74.39;101854.94;1709874;84;21462;-69
2021/10/15 06:01:30;;;;;;;15.10;9.35;;;;;;;9.06;74.08;101857.02;1709605;84;21197;-69
2021/10/15 06:15:41;;;;;;;17.45;9.30;;;;;;;9.55;72.57;101866.80;1709948;84;21312;-68
2021/10/15 06:18:20;;;;;;;15.23;9.15;;;;;;;9.66;72.20;101872.22;1711064;84;21272;-67
2021/10/15 06:20:58;;;;;;;16.40;9.73;;;;;;;9.70;71.66;101861.94;1709772;84;21222;-68
2021/10/15 06:23:35;;;;;;;11.78;8.28;;;;;;;9.76;71.71;101857.67;1709886;84;21176;-68
2021/10/15 06:26:10;;;;;;;17.15;9.18;;;;;;;9.84;71.22;101864.56;1714426;83;21187;-68
2021/10/15 06:28:43;;;;;;;16.17;9.35;;;;;;;9.92;71.18;101862.34;1744011;82;21310;-67
2021/10/15 06:31:18;;;;;;;15.72;9.73;;;;;;;10.06;71.17;101861.03;1730882;83;21267;-67
2021/10/15 06:33:53;;;;;;;17.75;9.33;;;;;;;10.25;70.84;101866.47;1741251;82;21343;-68
2021/10/15 06:36:28;;;;;;;15.83;10.10;;;;;;;10.42;70.31;101863.19;1731149;83;22120;-68
2021/10/15 06:39:05;;;;;;;16.32;9.73;;;;;;;10.54;69.65;101861.10;1744491;82;21219;-67
2021/10/15 06:41:40;;;;;;;17.77;10.35;;;;;;;10.63;69.22;101859.20;1730787;83;21454;-67
2021/10/15 06:44:15;;;;;;;14.73;9.43;;;;;;;10.73;68.83;101862.92;1712072;84;21283;-69
2021/10/15 06:46:49;;;;;;;17.87;9.83;;;;;;;10.87;68.54;101859.41;1705984;83;21148;-68
2021/10/15 06:49:32;;;;;;;16.12;8.93;;;;;;;11.00;68.06;101860.77;1744048;81;21278;-69
2021/10/15 06:52:07;;;;;;;13.95;9.18;;;;;;;11.12;67.95;101857.36;1732678;83;21255;-69
2021/10/15 06:54:39;;;;;;;;;;;;;;;11.25;67.37;101858.20;1747220;82;21475;-69
2021/10/15 06:57:12;;;;;;;14.00;8.90;;;;;;;11.39;66.96;101862.09;1713936;84;20236;-69
2021/10/15 06:59:51;;;;;;;14.38;9.73;;;;;;;11.55;66.57;101861.89;1732041;83;21270;-70
2021/10/15 07:02:26;;;;;;;13.95;8.88;;;;;;;11.77;65.78;101855.60;1744360;82;21340;-71
2021/10/15 07:05:00;;;;;;;16.42;10.15;;;;;;;11.98;65.06;101851.50;1713315;84;21176;-71
2021/10/15 07:07:41;;;;;;;17.15;10.00;;;;;;;12.23;64.31;101854.08;1713451;84;21161;-69
2021/10/15 07:10:21;;;;;;;16.70;9.83;;;;;;;12.44;63.15;101860.42;1712233;83;21207;-70
2021/10/15 07:13:00;;;;;;;17.85;10.28;;;;;;;12.53;62.56;101847.98;1732767;83;21275;-71
2021/10/15 07:15:38;;;;;;;15.65;9.45;;;;;;;12.80;61.87;101849.91;1712430;84;21885;-70
2021/10/15 07:18:15;;;;;;;16.27;10.48;;;;;;;13.17;61.02;101844.61;1732216;83;21160;-68
2021/10/15 07:20:49;;;;;;;16.45;10.43;;;;;;;13.61;60.10;101847.37;1743866;82;21305;-68
2021/10/15 07:23:26;;;;;;;14.98;9.00;;;;;;;14.24;58.62;101837.56;1732327;83;21287;-69
2021/10/15 07:26:02;;;;;;;19.30;13.58;;;;;;;14.73;57.16;101831.89;1743748;82;21175;-67
2021/10/15 07:28:39;;;;;;;16.57;9.68;;;;;;;14.96;55.92;101837.91;1732260;82;21177;-69
2021/10/15 07:31:13;;;;;;;15.83;9.73;;;;;;;15.03;54.52;101829.84;1727704;83;21326;-68
2021/10/15 07:33:50;;;;;;;18.65;10.70;;;;;;;15.02;54.44;101837.42;1719883;82;21140;-68
2021/10/15 07:36:25;;;;;;;13.22;9.18;;;;;;;15.27;54.23;101842.32;1712236;84;21184;-69
2021/10/15 07:39:02;;;;;;;13.30;9.00;;;;;;;15.62;53.21;101840.73;1744735;82;21782;-71
2021/10/15 07:41:43;;;;;;;15.93;9.70;;;;;;;16.07;52.46;101848.16;1731088;83;21338;-68
2021/10/15 07:44:15;;;;;;;17.37;9.30;;;;;;;17.18;51.04;101838.23;1720139;82;21278;-69
2021/10/15 07:46:52;;;;;;;17.87;10.35;;;;;;;18.56;48.43;101844.50;1712325;84;21282;-69
2021/10/15 07:49:29;;;;;;;13.40;9.55;;;;;;;19.56;45.85;101839.29;1731567;81;21251;-71
2021/10/15 07:52:03;;;;;;;14.35;9.13;;;;;;;20.25;44.07;101844.54;1743663;82;21266;-69
2021/10/15 07:54:41;;;;;;;15.78;9.25;;;;;;;20.82;42.10;101838.34;1731717;83;21175;-68
2021/10/15 07:57:14;;;;;;;15.00;9.28;;;;;;;21.40;40.29;101836.90;1743544;82;21299;-69
2021/10/15 07:59:50;;;;;;;13.25;9.68;;;;;;;22.26;38.76;101841.02;1732274;83;21378;-67
2021/10/15 08:02:25;;;;;;;15.08;9.03;;;;;;;23.48;36.07;101827.72;1744044;82;21262;-69
2021/10/15 08:05:02;;;;;;;11.20;8.13;;;;;;;24.48;33.96;101837.75;1731387;83;21145;-69
2021/10/15 08:07:35;;;;;;;12.13;8.60;;;;;;;24.78;32.70;101830.47;1743174;82;21152;-69
2021/10/15 08:10:11;;;;;;;12.37;7.45;;;;;;;24.60;32.96;101830.36;1730805;83;21160;-69
2021/10/15 08:12:52;;;;;;;9.33;6.87;;;;;;;24.21;32.35;101833.92;1745036;82;21148;-67
2021/10/15 08:15:27;;;;;;;11.50;7.22;;;;;;;23.61;32.53;101835.42;1743904;82;21758;-69
2021/10/15 08:18:05;;;;;;;9.83;7.12;;;;;;;23.29;32.46;101829.84;1732233;83;21156;-69
2021/10/15 08:20:41;;;;;;;10.78;7.00;;;;;;;23.24;32.63;101833.56;1744388;82;21295;-65
2021/10/15 08:23:17;;;;;;;10.68;6.58;;;;;;;23.07;32.96;101833.89;1732345;83;21803;-69
2021/10/15 08:25:55;;;;;;;9.83;6.55;;;;;;;22.60;33.17;101838.02;1743639;82;21743;-69
2021/10/15 08:28:28;;;;;;;11.18;7.08;;;;;;;22.01;33.74;101840.80;1732289;83;21153;-70
2021/10/15 08:31:12;;;;;;;13.28;7.53;;;;;;;21.40;34.62;101838.23;1734816;82;21264;-69
2021/10/15 08:33:52;;;;;;;10.32;7.90;;;;;;;20.91;35.49;101831.71;1730085;83;21274;-69
2021/10/15 08:36:25;;;;;;;11.18;7.62;;;;;;;20.46;35.99;101831.64;1719316;83;21285;-69
2021/10/15 08:39:02;;;;;;;11.85;7.37;;;;;;;20.09;36.53;101833.78;1718471;83;21816;-69
2021/10/15 08:41:40;;;;;;;12.18;6.70;;;;;;;19.98;37.21;101839.39;1715767;83;21140;-69
2021/10/15 08:44:14;;;;;;;12.73;8.83;;;;;;;19.90;37.60;101828.70;1729025;81;21166;-69
2021/10/15 08:46:48;;;;;;;10.68;7.17;;;;;;;19.87;37.49;101834.36;1729068;83;21182;-71
2021/10/15 08:49:28;;;;;;;14.05;7.58;;;;;;;19.82;37.22;101832.66;1726450;83;21324;-69
2021/10/15 08:52:05;;;;;;;12.20;7.85;;;;;;;19.79;37.14;101830.31;1730104;83;21296;-67
2021/10/15 08:54:40;;;;;;;8.55;6.65;;;;;;;19.74;37.22;101838.77;1728698;83;21138;-69
2021/10/15 08:57:21;;;;;;;15.30;9.30;;;;;;;19.57;37.36;101838.31;1729047;83;21696;-68
2021/10/15 08:59:56;;;;;;;15.90;8.35;;;;;;;19.51;37.67;101838.95;1730438;83;21261;-68
2021/10/15 09:02:32;;;;;;;12.73;7.30;;;;;;;19.66;37.54;101840.52;1730154;83;21166;-68
2021/10/15 09:05:09;;;;;;;13.90;7.15;;;;;;;19.87;37.19;101836.49;1720201;83;21182;-68
2021/10/15 09:07:55;;;;;;;11.38;7.47;;;;;;;20.09;36.94;101833.78;1717755;83;21173;-68
2021/10/15 09:10:32;;;;;;;14.18;6.50;;;;;;;20.47;36.56;101826.63;1729924;83;21379;-64
2021/10/15 09:13:17;;;;;;;10.15;7.15;;;;;;;20.77;35.84;101826.05;1728713;82;21180;-69
2021/10/15 09:15:53;;;;;;;9.55;6.92;;;;;;;20.89;35.16;101822.57;1730746;83;21272;-69
2021/10/15 09:18:30;;;;;;;12.07;6.53;;;;;;;21.13;34.16;101824.44;1715304;83;21300;-63
2021/10/15 09:21:16;;;;;;;12.33;6.25;;;;;;;21.48;33.47;101818.25;1750128;82;21189;-69
2021/10/15 09:23:51;;;;;;;;;;;;;;;21.85;32.60;101818.20;1752499;82;21205;-69
2021/10/15 09:26:28;;;;;;;9.03;5.33;;;;;;;22.01;31.41;101817.64;1748514;82;20245;-69
2021/10/15 09:29:03;;;;;;;16.73;10.43;;;;;;;22.12;31.26;101813.74;1749912;82;21193;-68
2021/10/15 09:31:52;;;;;;;13.98;6.05;;;;;;;21.88;31.63;101808.50;1749652;82;21256;-69
2021/10/15 09:34:26;;;;;;;8.55;5.67;;;;;;;21.65;31.47;101800.39;1739461;82;21296;-67
2021/10/15 09:37:03;;;;;;;8.40;5.75;;;;;;;21.65;31.47;101800.39;1736340;82;21273;-68
2021/10/15 09:39:38;;;;;;;12.60;5.92;;;;;;;21.73;31.60;101799.05;1735187;82;21192;-68
2021/10/15 09:42:21;;;;;;;13.32;8.63;;;;;;;21.83;31.24;101800.98;1735737;82;21740;-68
2021/10/15 09:45:18;;;;;;;9.65;5.92;;;;;;;21.78;31.37;101794.53;1737229;82;21276;-69
2021/10/15 09:48:00;;;;;;;11.05;5.55;;;;;;;21.60;31.22;101792.56;1736145;82;21292;-69
2021/10/15 09:50:38;;;;;;;12.78;5.80;;;;;;;21.17;31.63;101795.13;1733760;82;21340;-69
2021/10/15 09:53:13;;;;;;;6.08;4.60;;;;;;;20.73;31.95;101799.41;1736545;82;21233;-67
2021/10/15 09:55:54;;;;;;;7.75;4.80;;;;;;;20.33;32.38;101793.17;1727519;82;21326;-68
2021/10/15 10:06:11;;;;;;;4.87;3.70;;;;;;;19.24;34.13;101784.11;1685372;85;21242;-69
2021/10/15 10:08:45;;;;;;;9.70;4.12;;;;;;;19.17;33.84;101775.11;1682395;83;21640;-69
2021/10/15 10:11:25;;;;;;;7.30;4.40;;;;;;;19.13;33.46;101777.70;1676652;84;21303;-69
2021/10/15 10:13:59;;;;;;;5.87;3.87;;;;;;;19.06;33.51;101774.00;1691955;84;21336;-68
2021/10/15 10:16:34;;;;;;;;;;;;;;;18.88;33.37;101774.53;1693877;84;21318;-69
2021/10/15 10:19:10;;;;;;;;;;;;;;;18.52;33.48;101772.86;1674760;85;20198;-66
2021/10/15 10:21:45;;;;;;;8.73;5.28;;;;;;;18.16;34.45;101773.27;1669456;85;20680;-70
2021/10/15 10:24:25;;;;;;;8.43;5.53;;;;;;;17.88;36.18;101772.45;1661370;85;21585;-70
2021/10/15 10:27:00;;;;;;;8.00;5.20;;;;;;;17.68;37.37;101768.69;1696229;84;21633;-68
2021/10/15 10:29:36;;;;;;;10.20;5.37;;;;;;;17.56;38.19;101773.81;1670224;83;21231;-70
2021/10/15 10:32:17;;;;;;;9.58;4.87;;;;;;;17.45;38.60;101770.36;1672428;84;21801;-69
2021/10/15 10:34:50;;;;;;;9.73;5.37;;;;;;;17.37;38.42;101770.23;1647155;84;21344;-72
2021/10/15 10:37:23;;;;;;;9.68;5.47;;;;;;;17.27;38.25;101771.21;1673785;84;22103;-69
2021/10/15 10:40:09;;;;;;;8.78;5.55;;;;;;;17.09;38.29;101763.19;1700488;82;21302;-70
2021/10/15 10:46:17;;;;;;;8.30;4.85;;;;;;;16.89;39.23;101762.00;1672597;84;21242;-70
2021/10/15 10:48:59;;;;;;;10.00;5.10;;;;;;;16.90;39.53;101755.27;1695124;83;21197;-70
2021/10/15 10:51:34;;;;;;;9.78;5.60;;;;;;;16.90;38.90;101751.78;1701945;84;21204;-70
2021/10/15 10:54:22;;;;;;;10.15;5.90;;;;;;;16.79;39.24;101744.81;1707766;84;21176;-70
2021/10/15 10:57:01;;;;;;;13.60;7.55;;;;;;;16.69;39.07;101742.17;1705755;84;21314;-70
2021/10/15 10:59:34;;;;;;;17.52;9.35;;;;;;;16.57;39.39;101738.50;1683841;84;21307;-69
2021/10/15 11:02:20;;;;;;;14.75;7.00;;;;;;;16.48;39.47;101734.02;1705204;84;21327;-70
2021/10/15 11:04:56;;;;;;;10.38;5.67;;;;;;;16.38;39.72;101730.05;1709343;84;21208;-70
2021/10/15 11:07:35;;;;;;;9.70;5.03;;;;;;;16.26;39.66;101736.91;1707870;83;21189;-69
2021/10/15 11:10:28;;;;;;;7.30;5.25;;;;;;;16.16;39.69;101737.73;1707187;84;21381;-70
2021/10/15 11:13:01;;;;;;;6.22;4.20;;;;;;;16.13;39.81;101732.71;1686030;84;21263;-68
2021/10/15 11:15:38;;;;;;;10.30;5.53;;;;;;;16.10;39.62;101733.45;1709283;84;21157;-69
2021/10/15 11:18:14;;;;;;;9.15;5.35;;;;;;;15.97;39.76;101736.84;1708384;84;21133;-70
2021/10/15 11:20:54;;;;;;;7.65;4.75;;;;;;;15.84;39.95;101733.59;1655285;85;21350;-69
2021/10/15 11:23:27;;;;;;;8.15;4.50;;;;;;;15.72;39.66;101724.09;1677033;85;21577;-69
2021/10/15 11:26:01;;;;;;;8.78;4.30;;;;;;;15.61;39.96;101728.16;1684774;84;21334;-69
2021/10/15 11:28:37;;;;;;;9.20;5.60;;;;;;;15.52;40.62;101727.17;1707856;84;21221;-68
2021/10/15 11:31:12;;;;;;;12.23;5.97;;;;;;;15.46;40.83;101731.16;1709131;84;21185;-71
2021/10/15 11:33:47;;;;;;;7.67;4.92;;;;;;;15.43;40.80;101730.06;1707819;84;21735;-68
2021/10/15 11:36:22;;;;;;;7.83;4.22;;;;;;;15.42;40.92;101727.56;1711367;83;21355;-69
2021/10/15 11:39:08;;;;;;;6.60;4.28;;;;;;;15.42;41.17;101728.41;1684338;84;21149;-69
2021/10/15 11:41:54;;;;;;;9.83;5.62;;;;;;;15.45;41.30;101735.27;1714331;84;21141;-68
2021/10/15 11:44:37;;;;;;;14.35;7.08;;;;;;;15.48;41.25;101730.55;1713989;84;21319;-68
2021/10/15 11:47:17;;;;;;;46.33;22.07;;;;;;;15.52;40.91;101731.13;1714005;84;21302;-71
2021/10/15 11:49:55;;;;;;;18.87;10.40;;;;;;;15.61;40.96;101735.61;1713809;82;21770;-69
2021/10/15 11:52:29;;;;;;;11.05;6.50;;;;;;;15.71;40.99;101736.48;1685205;84;21276;-69
2021/10/15 11:55:20;;;;;;;13.88;7.10;;;;;;;15.80;40.68;101731.72;1713587;84;21575;-69
2021/10/15 11:57:55;;;;;;;9.25;5.65;;;;;;;15.91;40.77;101726.33;1712451;84;21216;-70
2021/10/15 12:00:35;;;;;;;21.77;10.30;;;;;;;16.00;40.80;101731.30;1685941;84;21140;-65
2021/10/15 12:03:08;;;;;;;14.87;7.83;;;;;;;16.04;40.78;101728.73;1714288;84;21311;-67
2021/10/15 12:05:41;;;;;;;11.22;6.70;;;;;;;16.03;40.79;101725.73;1713312;84;21592;-66
2021/10/15 12:08:24;;;;;;;14.98;7.08;;;;;;;16.05;40.92;101726.42;1712089;84;21153;-68
2021/10/15 12:11:00;;;;;;;11.85;6.03;;;;;;;16.04;41.10;101722.13;1713370;84;21278;-68
2021/10/15 12:13:42;;;;;;;12.47;6.70;;;;;;;16.04;40.91;101722.97;1714488;84;21338;-68
2021/10/15 12:16:32;;;;;;;13.83;6.70;;;;;;;16.06;40.99;101728.11;1713426;84;21188;-66
2021/10/15 12:19:32;;;;;;;12.07;6.42;;;;;;;16.10;41.12;101722.41;1713684;84;21825;-67
2021/10/15 12:22:20;;;;;;;9.23;4.55;;;;;;;16.13;40.46;101712.05;1714198;84;21338;-67
2021/10/15 12:25:00;;;;;;;6.85;5.10;;;;;;;16.12;40.26;101713.86;1712755;84;21267;-66
2021/10/15 12:27:44;;;;;;;10.40;5.12;;;;;;;16.09;39.88;101715.47;1714019;84;21264;-66
2021/10/15 12:30:26;;;;;;;7.37;4.87;;;;;;;16.02;39.95;101718.31;1712715;84;21140;-68
2021/10/15 12:33:03;;;;;;;24.87;15.98;;;;;;;15.94;39.55;101713.34;1714262;84;21236;-68
2021/10/15 12:35:40;;;;;;;17.62;8.73;;;;;;;15.77;39.57;101706.05;1713558;84;21330;-68